sensor_id;sensor_type;location;lat;lon;timestamp;pressure;altitude;pressure_sealevel;temperature;humidity
26043;BME280;13818;52.156;5.382;2022-10-24T00:00:52;100075.03;;;15.64;100.00
26043;BME280;13818;52.156;5.382;2022-10-24T00:03:18;100077.72;;;15.64;100.00
26043;BME280;13818;52.156;5.382;2022-10-24T00:05:46;100083.72;;;15.68;100.00
26043;BME280;13818;52.156;5.382;2022-10-24T00:08:13;100067.09;;;15.74;100.00
26043;BME280;13818;52.156;5.382;2022-10-24T00:10:41;100069.66;;;15.75;100.00
26043;BME280;13818;52.156;5.382;2022-10-24T00:13:08;100076.75;;;15.76;100.00
26043;BME280;13818;52.156;5.382;2022-10-24T00:15:36;100064.78;;;15.81;100.00
26043;BME280;13818;52.156;5.382;2022-10-24T00:18:03;100074.34;;;15.85;100.00
26043;BME280;13818;52.156;5.382;2022-10-24T00:20:30;100068.09;;;15.84;100.00
26043;BME280;13818;52.156;5.382;2022-10-24T00:22:56;100064.78;;;15.81;100.00
26043;BME280;13818;52.156;5.382;2022-10-24T00:25:23;100062.09;;;15.81;100.00
26043;BME280;13818;52.156;5.382;2022-10-24T00:27:49;100067.59;;;15.79;100.00
26043;BME280;13818;52.156;5.382;2022-10-24T00:30:16;100061.38;;;15.78;100.00
26043;BME280;13818;52.156;5.382;2022-10-24T00:32:44;100046.34;;;15.76;100.00
26043;BME280;13818;52.156;5.382;2022-10-24T00:35:10;100050.84;;;15.75;100.00
26043;BME280;13818;52.156;5.382;2022-10-24T00:37:37;100056.72;;;15.69;100.00
26043;BME280;13818;52.156;5.382;2022-10-24T00:40:04;100045.97;;;15.69;100.00
26043;BME280;13818;52.156;5.382;2022-10-24T00:42:31;100042.56;;;15.67;100.00
26043;BME280;13818;52.156;5.382;2022-10-24T00:44:57;100049.06;;;15.65;100.00
26043;BME280;13818;52.156;5.382;2022-10-24T00:47:25;100039.50;;;15.60;100.00
26043;BME280;13818;52.156;5.382;2022-10-24T00:49:56;100038.53;;;15.61;100.00
26043;BME280;13818;52.156;5.382;2022-10-24T00:52:27;100042.06;;;15.62;100.00
26043;BME280;13818;52.156;5.382;2022-10-24T00:54:54;100036.94;;;15.59;100.00
26043;BME280;13818;52.156;5.382;2022-10-24T00:57:24;100023.78;;;15.56;100.00
26043;BME280;13818;52.156;5.382;2022-10-24T00:59:58;100024.50;;;15.58;100.00
26043;BME280;13818;52.156;5.382;2022-10-24T01:02:26;100037.56;;;15.62;100.00
26043;BME280;13818;52.156;5.382;2022-10-24T01:04:53;100034.25;;;15.59;100.00
26043;BME280;13818;52.156;5.382;2022-10-24T01:07:32;100041.09;;;15.63;100.00
26043;BME280;13818;52.156;5.382;2022-10-24T01:10:14;100037.69;;;15.61;100.00
26043;BME280;13818;52.156;5.382;2022-10-24T01:12:54;100034.00;;;15.62;100.00
26043;BME280;13818;52.156;5.382;2022-10-24T01:15:27;100023.03;;;15.65;100.00
26043;BME280;13818;52.156;5.382;2022-10-24T01:18:01;100024.75;;;15.66;100.00
26043;BME280;13818;52.156;5.382;2022-10-24T01:20:41;100029.25;;;15.66;100.00
26043;BME280;13818;52.156;5.382;2022-10-24T01:23:26;100027.44;;;15.66;100.00
26043;BME280;13818;52.156;5.382;2022-10-24T01:26:09;100024.34;;;15.71;100.00
26043;BME280;13818;52.156;5.382;2022-10-24T01:28:51;100019.59;;;15.74;100.00
26043;BME280;13818;52.156;5.382;2022-10-24T01:31:25;100009.59;;;15.76;100.00
26043;BME280;13818;52.156;5.382;2022-10-24T01:33:58;100012.53;;;15.85;100.00
26043;BME280;13818;52.156;5.382;2022-10-24T01:36:32;100003.25;;;15.89;100.00
26043;BME280;13818;52.156;5.382;2022-10-24T01:39:02;100004.97;;;15.90;100.00
26043;BME280;13818;52.156;5.382;2022-10-24T01:41:30;99997.47;;;15.93;100.00
26043;BME280;13818;52.156;5.382;2022-10-24T01:44:01;99991.13;;;15.94;100.00
26043;BME280;13818;52.156;5.382;2022-10-24T01:46:33;99993.81;;;15.94;100.00
26043;BME280;13818;52.156;5.382;2022-10-24T01:49:04;99985.75;;;15.94;100.00
26043;BME280;13818;52.156;5.382;2022-10-24T01:51:34;99990.00;;;15.97;100.00
26043;BME280;13818;52.156;5.382;2022-10-24T01:54:02;99989.19;;;15.97;100.00
26043;BME280;13818;52.156;5.382;2022-10-24T01:56:29;99982.56;;;16.01;100.00
26043;BME280;13818;52.156;5.382;2022-10-24T01:59:03;99977.19;;;16.01;100.00
26043;BME280;13818;52.156;5.382;2022-10-24T02:01:31;99974.13;;;16.05;100.00
26043;BME280;13818;52.156;5.382;2022-10-24T02:04:00;99972.53;;;16.03;100.00
26043;BME280;13818;52.156;5.382;2022-10-24T02:06:32;99960.94;;;16.02;100.00
26043;BME280;13818;52.156;5.382;2022-10-24T02:09:02;99967.88;;;16.05;100.00
26043;BME280;13818;52.156;5.382;2022-10-24T02:11:31;99961.28;;;16.09;100.00
26043;BME280;13818;52.156;5.382;2022-10-24T02:14:01;99960.19;;;16.12;100.00
26043;BME280;13818;52.156;5.382;2022-10-24T02:16:32;99960.78;;;16.15;100.00
26043;BME280;13818;52.156;5.382;2022-10-24T02:19:00;99961.88;;;16.13;100.00
26043;BME280;13818;52.156;5.382;2022-10-24T02:21:30;99960.66;;;16.17;100.00
26043;BME280;13818;52.156;5.382;2022-10-24T02:24:00;99961.25;;;16.20;100.00
26043;BME280;13818;52.156;5.382;2022-10-24T02:26:30;99954.88;;;16.21;100.00
26043;BME280;13818;52.156;5.382;2022-10-24T02:29:01;99955.47;;;16.25;100.00
26043;BME280;13818;52.156;5.382;2022-10-24T02:31:35;99955.72;;;16.22;100.00
26043;BME280;13818;52.156;5.382;2022-10-24T02:34:04;99954.63;;;16.24;100.00
26043;BME280;13818;52.156;5.382;2022-10-24T02:36:34;99954.75;;;16.23;100.00
26043;BME280;13818;52.156;5.382;2022-10-24T02:39:02;99951.09;;;16.24;100.00
26043;BME280;13818;52.156;5.382;2022-10-24T02:41:31;99956.84;;;16.19;100.00
26043;BME280;13818;52.156;5.382;2022-10-24T02:44:00;99950.88;;;16.16;100.00
26043;BME280;13818;52.156;5.382;2022-10-24T02:46:28;99950.88;;;16.16;100.00
26043;BME280;13818;52.156;5.382;2022-10-24T02:48:58;99945.63;;;16.14;100.00
26043;BME280;13818;52.156;5.382;2022-10-24T02:51:27;99948.44;;;16.13;100.00
26043;BME280;13818;52.156;5.382;2022-10-24T02:53:55;99953.09;;;16.10;100.00
26043;BME280;13818;52.156;5.382;2022-10-24T02:56:22;99959.31;;;16.11;100.00
26043;BME280;13818;52.156;5.382;2022-10-24T02:58:48;99948.19;;;16.16;100.00
26043;BME280;13818;52.156;5.382;2022-10-24T03:01:15;99950.41;;;16.10;100.00
26043;BME280;13818;52.156;5.382;2022-10-24T03:03:41;99962.50;;;16.05;100.00
26043;BME280;13818;52.156;5.382;2022-10-24T03:06:09;99956.75;;;16.09;100.00
26043;BME280;13818;52.156;5.382;2022-10-24T03:08:35;99959.91;;;16.15;100.00
26043;BME280;13818;52.156;5.382;2022-10-24T03:11:02;99957.09;;;16.16;100.00
26043;BME280;13818;52.156;5.382;2022-10-24T03:13:29;99953.81;;;16.13;100.00
26043;BME280;13818;52.156;5.382;2022-10-24T03:15:55;99942.34;;;16.10;100.00
26043;BME280;13818;52.156;5.382;2022-10-24T03:18:22;99953.22;;;16.09;100.00
26043;BME280;13818;52.156;5.382;2022-10-24T03:20:48;99961.16;;;16.10;100.00
26043;BME280;13818;52.156;5.382;2022-10-24T03:23:16;99958.47;;;16.10;100.00
26043;BME280;13818;52.156;5.382;2022-10-24T03:25:43;99957.25;;;16.03;100.00
26043;BME280;13818;52.156;5.382;2022-10-24T03:28:10;99951.66;;;16.06;100.00
26043;BME280;13818;52.156;5.382;2022-10-24T03:30:37;99955.44;;;16.04;100.00
26043;BME280;13818;52.156;5.382;2022-10-24T03:33:03;99957.25;;;16.03;100.00
26043;BME280;13818;52.156;5.382;2022-10-24T03:35:29;99949.19;;;16.03;100.00
26043;BME280;13818;52.156;5.382;2022-10-24T03:37:56;99946.03;;;15.98;100.00
26043;BME280;13818;52.156;5.382;2022-10-24T03:40:24;99957.66;;;15.99;100.00
26043;BME280;13818;52.156;5.382;2022-10-24T03:42:50;99953.00;;;16.01;100.00
26043;BME280;13818;52.156;5.382;2022-10-24T03:45:17;99954.09;;;15.98;100.00
26043;BME280;13818;52.156;5.382;2022-10-24T03:47:43;99952.66;;;15.94;100.00
26043;BME280;13818;52.156;5.382;2022-10-24T03:50:10;99959.38;;;15.88;100.00
26043;BME280;13818;52.156;5.382;2022-10-24T03:52:36;99955.34;;;15.94;100.00
26043;BME280;13818;52.156;5.382;2022-10-24T03:55:03;99948.53;;;15.90;100.00
26043;BME280;13818;52.156;5.382;2022-10-24T03:57:31;99957.06;;;15.95;100.00
26043;BME280;13818;52.156;5.382;2022-10-24T03:59:57;99957.53;;;16.00;100.00
26043;BME280;13818;52.156;5.382;2022-10-24T04:02:24;99945.34;;;15.96;100.00
26043;BME280;13818;52.156;5.382;2022-10-24T04:04:50;99954.09;;;15.98;100.00
26043;BME280;13818;52.156;5.382;2022-10-24T04:07:17;99952.41;;;15.97;100.00
26043;BME280;13818;52.156;5.382;2022-10-24T04:09:43;99956.09;;;15.96;100.00
26043;BME280;13818;52.156;5.382;2022-10-24T04:12:09;99950.72;;;15.96;100.00
26043;BME280;13818;52.156;5.382;2022-10-24T04:14:37;99961.56;;;15.94;100.00
26043;BME280;13818;52.156;5.382;2022-10-24T04:17:04;99945.06;;;15.99;100.00
26043;BME280;13818;52.156;5.382;2022-10-24T04:19:31;99947.38;;;16.04;100.00
26043;BME280;13818;52.156;5.382;2022-10-24T04:21:57;99936.88;;;16.01;100.00
26043;BME280;13818;52.156;5.382;2022-10-24T04:24:24;99950.91;;;16.04;100.00
26043;BME280;13818;52.156;5.382;2022-10-24T04:26:51;99941.53;;;15.99;100.00
26043;BME280;13818;52.156;5.382;2022-10-24T04:29:17;99937.38;;;15.94;100.00
26043;BME280;13818;52.156;5.382;2022-10-24T04:31:45;99943.03;;;15.91;100.00
26043;BME280;13818;52.156;5.382;2022-10-24T04:34:11;99940.53;;;16.00;100.00
26043;BME280;13818;52.156;5.382;2022-10-24T04:36:38;99940.81;;;15.97;100.00
26043;BME280;13818;52.156;5.382;2022-10-24T04:39:04;99946.03;;;15.98;100.00
26043;BME280;13818;52.156;5.382;2022-10-24T04:41:31;99949.47;;;16.00;100.00
26043;BME280;13818;52.156;5.382;2022-10-24T04:43:57;99944.47;;;15.96;100.00
26043;BME280;13818;52.156;5.382;2022-10-24T04:46:24;99945.44;;;15.94;100.00
26043;BME280;13818;52.156;5.382;2022-10-24T04:48:51;99942.97;;;16.03;100.00
26043;BME280;13818;52.156;5.382;2022-10-24T04:51:18;99934.13;;;16.12;100.00
26043;BME280;13818;52.156;5.382;2022-10-24T04:53:45;99935.97;;;16.12;100.00
26043;BME280;13818;52.156;5.382;2022-10-24T04:56:11;99936.44;;;16.17;100.00
26043;BME280;13818;52.156;5.382;2022-10-24T04:58:37;99940.84;;;16.18;100.00
26043;BME280;13818;52.156;5.382;2022-10-24T05:01:04;99937.88;;;16.21;100.00
26043;BME280;13818;52.156;5.382;2022-10-24T05:03:30;99946.59;;;16.13;100.00
26043;BME280;13818;52.156;5.382;2022-10-24T05:05:58;99941.34;;;16.12;100.00
26043;BME280;13818;52.156;5.382;2022-10-24T05:08:25;99946.81;;;16.21;100.00
26043;BME280;13818;52.156;5.382;2022-10-24T05:10:51;99944.25;;;16.20;100.00
26043;BME280;13818;52.156;5.382;2022-10-24T05:13:18;99930.94;;;16.18;100.00
26043;BME280;13818;52.156;5.382;2022-10-24T05:15:45;99936.31;;;16.18;100.00
26043;BME280;13818;52.156;5.382;2022-10-24T05:18:11;99938.03;;;16.19;100.00
26043;BME280;13818;52.156;5.382;2022-10-24T05:20:37;99936.63;;;16.25;100.00
26043;BME280;13818;52.156;5.382;2022-10-24T05:23:05;99941.91;;;16.26;100.00
26043;BME280;13818;52.156;5.382;2022-10-24T05:25:33;99942.44;;;16.20;100.00
26043;BME280;13818;52.156;5.382;2022-10-24T05:28:00;99946.22;;;16.18;100.00
26043;BME280;13818;52.156;5.382;2022-10-24T05:30:26;99938.53;;;16.13;100.00
26043;BME280;13818;52.156;5.382;2022-10-24T05:32:53;99948.50;;;16.22;100.00
26043;BME280;13818;52.156;5.382;2022-10-24T05:35:19;99936.19;;;16.20;100.00
26043;BME280;13818;52.156;5.382;2022-10-24T05:37:46;99937.88;;;16.21;100.00
26043;BME280;13818;52.156;5.382;2022-10-24T05:40:13;99932.50;;;16.21;100.00
26043;BME280;13818;52.156;5.382;2022-10-24T05:42:40;99940.06;;;16.27;100.00
26043;BME280;13818;52.156;5.382;2022-10-24T05:45:08;99948.72;;;16.31;100.00
26043;BME280;13818;52.156;5.382;2022-10-24T05:47:35;99931.84;;;16.29;100.00
26043;BME280;13818;52.156;5.382;2022-10-24T05:50:02;99940.66;;;16.31;100.00
26043;BME280;13818;52.156;5.382;2022-10-24T05:52:29;99944.53;;;16.38;100.00
26043;BME280;13818;52.156;5.382;2022-10-24T05:54:55;99933.78;;;16.38;100.00
26043;BME280;13818;52.156;5.382;2022-10-24T05:57:23;99932.78;;;16.39;100.00
26043;BME280;13818;52.156;5.382;2022-10-24T05:59:49;99931.19;;;16.36;100.00
26043;BME280;13818;52.156;5.382;2022-10-24T06:02:17;99934.44;;;16.30;100.00
26043;BME280;13818;52.156;5.382;2022-10-24T06:04:44;99930.75;;;16.31;100.00
26043;BME280;13818;52.156;5.382;2022-10-24T06:07:10;99938.09;;;16.29;100.00
26043;BME280;13818;52.156;5.382;2022-10-24T06:09:38;99937.97;;;16.31;100.00
26043;BME280;13818;52.156;5.382;2022-10-24T06:12:06;99940.06;;;16.27;100.00
26043;BME280;13818;52.156;5.382;2022-10-24T06:14:35;99933.94;;;16.25;100.00
26043;BME280;13818;52.156;5.382;2022-10-24T06:17:02;99936.41;;;16.28;100.00
26043;BME280;13818;52.156;5.382;2022-10-24T06:19:29;99942.38;;;16.32;100.00
26043;BME280;13818;52.156;5.382;2022-10-24T06:21:56;99952.25;;;16.31;100.00
26043;BME280;13818;52.156;5.382;2022-10-24T06:24:22;99951.56;;;16.29;100.00
26043;BME280;13818;52.156;5.382;2022-10-24T06:26:49;99954.34;;;16.27;100.00
26043;BME280;13818;52.156;5.382;2022-10-24T06:29:15;99952.38;;;16.30;100.00
26043;BME280;13818;52.156;5.382;2022-10-24T06:31:43;99958.09;;;16.36;100.00
26043;BME280;13818;52.156;5.382;2022-10-24T06:34:10;99956.66;;;16.32;100.00
26043;BME280;13818;52.156;5.382;2022-10-24T06:36:36;99961.06;;;16.33;100.00
26043;BME280;13818;52.156;5.382;2022-10-24T06:39:03;99952.34;;;16.41;100.00
26043;BME280;13818;52.156;5.382;2022-10-24T06:41:30;99955.41;;;16.36;100.00
26043;BME280;13818;52.156;5.382;2022-10-24T06:43:56;99947.63;;;16.33;100.00
26043;BME280;13818;52.156;5.382;2022-10-24T06:46:22;99959.34;;;16.32;100.00
26043;BME280;13818;52.156;5.382;2022-10-24T06:48:54;99950.91;;;16.37;100.00
26043;BME280;13818;52.156;5.382;2022-10-24T06:51:21;99968.59;;;16.39;100.00
26043;BME280;13818;52.156;5.382;2022-10-24T06:53:48;99965.03;;;16.39;100.00
26043;BME280;13818;52.156;5.382;2022-10-24T06:56:15;99968.59;;;16.39;100.00
26043;BME280;13818;52.156;5.382;2022-10-24T06:58:43;99984.38;;;16.44;100.00
26043;BME280;13818;52.156;5.382;2022-10-24T07:01:12;99977.72;;;16.48;100.00
26043;BME280;13818;52.156;5.382;2022-10-24T07:03:39;99978.31;;;16.52;100.00
26043;BME280;13818;52.156;5.382;2022-10-24T07:06:09;99990.53;;;16.56;100.00
26043;BME280;13818;52.156;5.382;2022-10-24T07:08:36;99991.19;;;16.69;100.00
26043;BME280;13818;52.156;5.382;2022-10-24T07:11:02;99991.81;;;16.83;100.00
26043;BME280;13818;52.156;5.382;2022-10-24T07:13:29;100006.47;;;16.90;100.00
26043;BME280;13818;52.156;5.382;2022-10-24T07:15:55;100009.78;;;16.94;100.00
26043;BME280;13818;52.156;5.382;2022-10-24T07:18:22;100009.41;;;16.98;100.00
26043;BME280;13818;52.156;5.382;2022-10-24T07:20:48;100014.88;;;16.97;100.00
26043;BME280;13818;52.156;5.382;2022-10-24T07:23:16;100033.50;;;17.00;100.00
26043;BME280;13818;52.156;5.382;2022-10-24T07:25:43;100020.34;;;17.06;100.00
26043;BME280;13818;52.156;5.382;2022-10-24T07:28:10;100038.19;;;17.07;100.00
26043;BME280;13818;52.156;5.382;2022-10-24T07:30:38;100030.59;;;17.13;100.00
26043;BME280;13818;52.156;5.382;2022-10-24T07:33:05;100032.75;;;17.19;100.00
26043;BME280;13818;52.156;5.382;2022-10-24T07:35:31;100035.28;;;17.20;100.00
26043;BME280;13818;52.156;5.382;2022-10-24T07:37:58;100030.28;;;17.16;100.00
26043;BME280;13818;52.156;5.382;2022-10-24T07:40:25;100045.47;;;17.17;100.00
26043;BME280;13818;52.156;5.382;2022-10-24T07:42:52;100033.72;;;16.97;100.00
26043;BME280;13818;52.156;5.382;2022-10-24T07:45:18;100041.56;;;17.00;100.00
26043;BME280;13818;52.156;5.382;2022-10-24T07:47:45;100045.09;;;17.00;100.00
26043;BME280;13818;52.156;5.382;2022-10-24T07:50:12;100041.94;;;16.95;100.00
26043;BME280;13818;52.156;5.382;2022-10-24T07:52:41;100040.38;;;16.92;100.00
26043;BME280;13818;52.156;5.382;2022-10-24T07:55:08;100048.59;;;16.91;100.00
26043;BME280;13818;52.156;5.382;2022-10-24T07:57:36;100047.38;;;16.84;100.00
26043;BME280;13818;52.156;5.382;2022-10-24T08:00:03;100061.66;;;16.84;100.00
26043;BME280;13818;52.156;5.382;2022-10-24T08:02:29;100050.66;;;16.87;100.00
26043;BME280;13818;52.156;5.382;2022-10-24T08:04:57;100059.56;;;16.88;100.00
26043;BME280;13818;52.156;5.382;2022-10-24T08:07:23;100059.69;;;16.86;100.00
26043;BME280;13818;52.156;5.382;2022-10-24T08:09:50;100067.63;;;16.88;100.00
26043;BME280;13818;52.156;5.382;2022-10-24T08:12:16;100070.47;;;16.86;100.00
26043;BME280;13818;52.156;5.382;2022-10-24T08:14:44;100062.34;;;16.98;100.00
26043;BME280;13818;52.156;5.382;2022-10-24T08:17:11;100079.94;;;17.23;100.00
26043;BME280;13818;52.156;5.382;2022-10-24T08:19:38;100077.47;;;17.31;100.00
26043;BME280;13818;52.156;5.382;2022-10-24T08:22:06;100070.28;;;17.20;100.00
26043;BME280;13818;52.156;5.382;2022-10-24T08:24:33;100076.94;;;17.16;100.00
26043;BME280;13818;52.156;5.382;2022-10-24T08:27:00;100080.41;;;17.07;100.00
26043;BME280;13818;52.156;5.382;2022-10-24T08:29:26;100091.59;;;17.02;100.00
26043;BME280;13818;52.156;5.382;2022-10-24T08:31:55;100103.59;;;16.98;100.00
26043;BME280;13818;52.156;5.382;2022-10-24T08:34:22;100098.28;;;17.08;100.00
26043;BME280;13818;52.156;5.382;2022-10-24T08:36:49;100103.66;;;17.08;100.00
26043;BME280;13818;52.156;5.382;2022-10-24T08:39:16;100100.78;;;17.00;100.00
26043;BME280;13818;52.156;5.382;2022-10-24T08:41:44;100110.56;;;17.01;100.00
26043;BME280;13818;52.156;5.382;2022-10-24T08:44:18;100111.19;;;16.93;100.00
26043;BME280;13818;52.156;5.382;2022-10-24T08:46:48;100108.41;;;16.95;100.00
26043;BME280;13818;52.156;5.382;2022-10-24T08:49:23;100115.59;;;16.94;100.00
26043;BME280;13818;52.156;5.382;2022-10-24T08:51:53;100103.25;;;16.91;100.00
26043;BME280;13818;52.156;5.382;2022-10-24T08:54:23;100105.81;;;16.93;100.00
26043;BME280;13818;52.156;5.382;2022-10-24T08:56:51;100110.06;;;16.96;100.00
26043;BME280;13818;52.156;5.382;2022-10-24T08:59:19;100109.00;;;16.98;100.00
26043;BME280;13818;52.156;5.382;2022-10-24T09:01:49;100116.81;;;16.90;100.00
26043;BME280;13818;52.156;5.382;2022-10-24T09:04:20;100109.50;;;16.92;100.00
26043;BME280;13818;52.156;5.382;2022-10-24T09:06:51;100118.78;;;16.88;100.00
26043;BME280;13818;52.156;5.382;2022-10-24T09:09:22;100117.78;;;16.89;100.00
26043;BME280;13818;52.156;5.382;2022-10-24T09:11:54;100128.22;;;16.94;100.00
26043;BME280;13818;52.156;5.382;2022-10-24T09:14:22;100132.50;;;16.85;100.00
26043;BME280;13818;52.156;5.382;2022-10-24T09:16:51;100137.00;;;16.84;100.00
26043;BME280;13818;52.156;5.382;2022-10-24T09:19:23;100148.28;;;16.89;100.00
26043;BME280;13818;52.156;5.382;2022-10-24T09:21:51;100153.50;;;17.02;100.00
26043;BME280;13818;52.156;5.382;2022-10-24T09:24:29;100151.06;;;16.99;100.00
26043;BME280;13818;52.156;5.382;2022-10-24T09:26:57;100158.81;;;16.92;100.00
26043;BME280;13818;52.156;5.382;2022-10-24T09:29:26;100144.38;;;16.94;100.00
26043;BME280;13818;52.156;5.382;2022-10-24T09:31:53;100160.00;;;17.00;100.00
26043;BME280;13818;52.156;5.382;2022-10-24T09:34:34;100158.56;;;17.17;100.00
26043;BME280;13818;52.156;5.382;2022-10-24T09:37:00;100167.44;;;17.29;100.00
26043;BME280;13818;52.156;5.382;2022-10-24T09:39:31;100176.09;;;17.53;100.00
26043;BME280;13818;52.156;5.382;2022-10-24T09:41:59;100174.72;;;17.59;100.00
26043;BME280;13818;52.156;5.382;2022-10-24T09:44:30;100165.31;;;17.53;100.00
26043;BME280;13818;52.156;5.382;2022-10-24T09:46:57;100183.53;;;17.40;100.00
26043;BME280;13818;52.156;5.382;2022-10-24T09:49:30;100186.31;;;17.29;100.00
26043;BME280;13818;52.156;5.382;2022-10-24T09:52:04;100191.94;;;17.26;100.00
26043;BME280;13818;52.156;5.382;2022-10-24T09:54:33;100190.03;;;17.16;100.00
26043;BME280;13818;52.156;5.382;2022-10-24T09:57:04;100196.38;;;17.15;100.00
26043;BME280;13818;52.156;5.382;2022-10-24T09:59:40;100195.41;;;17.16;100.00
26043;BME280;13818;52.156;5.382;2022-10-24T10:02:29;100222.06;;;16.98;100.00
26043;BME280;13818;52.156;5.382;2022-10-24T10:05:17;100221.00;;;17.11;100.00
26043;BME280;13818;52.156;5.382;2022-10-24T10:07:47;100219.59;;;16.95;100.00
26043;BME280;13818;52.156;5.382;2022-10-24T10:10:30;100219.34;;;16.98;100.00
26043;BME280;13818;52.156;5.382;2022-10-24T10:13:17;100216.91;;;16.84;100.00
26043;BME280;13818;52.156;5.382;2022-10-24T10:15:49;100235.13;;;16.91;100.00
26043;BME280;13818;52.156;5.382;2022-10-24T10:18:28;100231.81;;;16.99;100.00
26043;BME280;13818;52.156;5.382;2022-10-24T10:21:03;100235.84;;;17.05;100.00
26043;BME280;13818;52.156;5.382;2022-10-24T10:23:34;100237.31;;;16.98;100.00
26043;BME280;13818;52.156;5.382;2022-10-24T10:26:13;100239.84;;;17.11;100.00
26043;BME280;13818;52.156;5.382;2022-10-24T10:28:46;100241.88;;;16.97;100.00
26043;BME280;13818;52.156;5.382;2022-10-24T10:31:15;100255.06;;;17.00;100.00
26043;BME280;13818;52.156;5.382;2022-10-24T10:33:44;100258.44;;;17.14;100.00
26043;BME280;13818;52.156;5.382;2022-10-24T10:36:20;100260.50;;;17.21;100.00
26043;BME280;13818;52.156;5.382;2022-10-24T10:38:57;100260.84;;;17.28;100.00
26043;BME280;13818;52.156;5.382;2022-10-24T10:41:38;100273.13;;;17.42;100.00
26043;BME280;13818;52.156;5.382;2022-10-24T10:44:34;100269.75;;;17.40;100.00
26043;BME280;13818;52.156;5.382;2022-10-24T10:47:11;100278.88;;;17.49;100.00
26043;BME280;13818;52.156;5.382;2022-10-24T10:49:39;100272.13;;;17.54;100.00
26043;BME280;13818;52.156;5.382;2022-10-24T10:52:11;100276.38;;;17.57;100.00
26043;BME280;13818;52.156;5.382;2022-10-24T10:54:54;100285.28;;;17.69;100.00
26043;BME280;13818;52.156;5.382;2022-10-24T10:57:31;100281.47;;;17.71;100.00
26043;BME280;13818;52.156;5.382;2022-10-24T11:00:03;100293.81;;;17.74;100.00
26043;BME280;13818;52.156;5.382;2022-10-24T11:02:55;100291.91;;;17.65;100.00
26043;BME280;13818;52.156;5.382;2022-10-24T11:05:35;100291.84;;;17.76;100.00
26043;BME280;13818;52.156;5.382;2022-10-24T11:08:14;100293.88;;;17.63;100.00
26043;BME280;13818;52.156;5.382;2022-10-24T11:10:48;100302.44;;;17.68;100.00
26043;BME280;13818;52.156;5.382;2022-10-24T11:13:19;100288.59;;;17.94;100.00
26043;BME280;13818;52.156;5.382;2022-10-24T11:15:51;100307.34;;;17.84;100.00
26043;BME280;13818;52.156;5.382;2022-10-24T11:18:23;100304.66;;;17.84;100.00
26043;BME280;13818;52.156;5.382;2022-10-24T11:20:55;100306.44;;;17.73;100.00
26043;BME280;13818;52.156;5.382;2022-10-24T11:23:28;100293.69;;;17.76;100.00
26043;BME280;13818;52.156;5.382;2022-10-24T11:25:59;100314.94;;;17.69;100.00
26043;BME280;13818;52.156;5.382;2022-10-24T11:28:30;100326.13;;;17.85;100.00
26043;BME280;13818;52.156;5.382;2022-10-24T11:31:05;100318.13;;;17.84;100.00
26043;BME280;13818;52.156;5.382;2022-10-24T11:33:38;100315.13;;;17.77;100.00
26043;BME280;13818;52.156;5.382;2022-10-24T11:36:11;100320.06;;;17.93;100.00
26043;BME280;13818;52.156;5.382;2022-10-24T11:38:44;100325.09;;;17.86;100.00
26043;BME280;13818;52.156;5.382;2022-10-24T11:41:23;100354.16;;;17.62;100.00
26043;BME280;13818;52.156;5.382;2022-10-24T11:43:53;100353.44;;;17.48;100.00
26043;BME280;13818;52.156;5.382;2022-10-24T11:46:25;100348.13;;;17.26;100.00
26043;BME280;13818;52.156;5.382;2022-10-24T11:48:58;100344.63;;;17.02;100.00
26043;BME280;13818;52.156;5.382;2022-10-24T11:51:32;100346.06;;;17.18;100.00
26043;BME280;13818;52.156;5.382;2022-10-24T11:54:02;100345.56;;;17.24;100.00
26043;BME280;13818;52.156;5.382;2022-10-24T11:56:37;100348.72;;;17.29;100.00
26043;BME280;13818;52.156;5.382;2022-10-24T11:59:10;100348.25;;;17.24;100.00
26043;BME280;13818;52.156;5.382;2022-10-24T12:02:01;100346.75;;;17.43;100.00
26043;BME280;13818;52.156;5.382;2022-10-24T12:04:52;100350.03;;;17.46;100.00
26043;BME280;13818;52.156;5.382;2022-10-24T12:10:25;100354.09;;;17.40;100.00
26043;BME280;13818;52.156;5.382;2022-10-24T12:13:22;100356.66;;;17.42;100.00
26043;BME280;13818;52.156;5.382;2022-10-24T12:16:00;100350.63;;;17.50;100.00
26043;BME280;13818;52.156;5.382;2022-10-24T12:18:32;100359.53;;;17.62;100.00
26043;BME280;13818;52.156;5.382;2022-10-24T12:21:02;100362.22;;;17.62;100.00
26043;BME280;13818;52.156;5.382;2022-10-24T12:23:29;100370.19;;;17.63;100.00
26043;BME280;13818;52.156;5.382;2022-10-24T12:26:05;100376.25;;;17.77;100.00
26043;BME280;13818;52.156;5.382;2022-10-24T12:28:34;100367.44;;;17.31;100.00
26043;BME280;13818;52.156;5.382;2022-10-24T12:31:17;100367.81;;;17.37;100.00
26043;BME280;13818;52.156;5.382;2022-10-24T12:33:45;100370.53;;;17.37;100.00
26043;BME280;13818;52.156;5.382;2022-10-24T12:36:13;100380.16;;;17.51;100.00
26043;BME280;13818;52.156;5.382;2022-10-24T12:39:07;100364.78;;;17.63;100.00
26043;BME280;13818;52.156;5.382;2022-10-24T12:41:38;100374.59;;;17.64;100.00
26043;BME280;13818;52.156;5.382;2022-10-24T12:44:39;100363.75;;;17.43;100.00
26043;BME280;13818;52.156;5.382;2022-10-24T12:47:30;100379.72;;;17.67;100.00
26043;BME280;13818;52.156;5.382;2022-10-24T12:49:58;100381.50;;;17.78;100.00
26043;BME280;13818;52.156;5.382;2022-10-24T12:53:02;100375.66;;;17.73;100.00
26043;BME280;13818;52.156;5.382;2022-10-24T12:56:04;100390.25;;;17.70;100.00
26043;BME280;13818;52.156;5.382;2022-10-24T12:58:33;100393.88;;;17.81;100.00
26043;BME280;13818;52.156;5.382;2022-10-24T13:01:04;100388.19;;;17.63;100.00
26043;BME280;13818;52.156;5.382;2022-10-24T13:03:50;100391.25;;;17.58;100.00